sensor_id;sensor_type;location;lat;lon;timestamp;P1;durP1;ratioP1;P2;durP2;ratioP2
74245;SDS011;62601;51.044;13.788;2022-10-01T00:01:40;9.30;;;8.23;;
74245;SDS011;62601;51.044;13.788;2022-10-01T00:04:01;10.02;;;7.93;;
74245;SDS011;62601;51.044;13.788;2022-10-01T00:06:22;9.38;;;7.53;;
74245;SDS011;62601;51.044;13.788;2022-10-01T00:08:45;9.45;;;7.72;;
74245;SDS011;62601;51.044;13.788;2022-10-01T00:11:07;8.43;;;7.70;;
74245;SDS011;62601;51.044;13.788;2022-10-01T00:13:29;8.30;;;7.50;;
74245;SDS011;62601;51.044;13.788;2022-10-01T00:15:51;8.45;;;7.50;;
74245;SDS011;62601;51.044;13.788;2022-10-01T00:18:12;8.35;;;7.55;;
74245;SDS011;62601;51.044;13.788;2022-10-01T00:20:34;8.10;;;6.95;;
74245;SDS011;62601;51.044;13.788;2022-10-01T00:22:55;11.32;;;7.38;;
74245;SDS011;62601;51.044;13.788;2022-10-01T00:25:16;9.73;;;7.65;;
74245;SDS011;62601;51.044;13.788;2022-10-01T00:27:38;8.98;;;7.65;;
74245;SDS011;62601;51.044;13.788;2022-10-01T00:29:59;7.70;;;6.90;;
74245;SDS011;62601;51.044;13.788;2022-10-01T00:32:23;8.80;;;7.40;;
74245;SDS011;62601;51.044;13.788;2022-10-01T00:34:45;9.15;;;7.50;;
74245;SDS011;62601;51.044;13.788;2022-10-01T00:37:06;10.85;;;8.35;;
74245;SDS011;62601;51.044;13.788;2022-10-01T00:39:28;13.25;;;8.02;;
74245;SDS011;62601;51.044;13.788;2022-10-01T00:41:49;9.25;;;7.63;;
74245;SDS011;62601;51.044;13.788;2022-10-01T00:46:50;8.88;;;7.22;;
74245;SDS011;62601;51.044;13.788;2022-10-01T00:49:17;8.80;;;7.60;;
74245;SDS011;62601;51.044;13.788;2022-10-01T00:51:41;9.07;;;8.18;;
74245;SDS011;62601;51.044;13.788;2022-10-01T00:54:11;8.65;;;7.65;;
74245;SDS011;62601;51.044;13.788;2022-10-01T00:56:36;8.50;;;7.35;;
74245;SDS011;62601;51.044;13.788;2022-10-01T00:58:57;9.65;;;8.00;;
74245;SDS011;62601;51.044;13.788;2022-10-01T01:01:22;8.85;;;7.35;;
74245;SDS011;62601;51.044;13.788;2022-10-01T01:03:42;8.00;;;7.20;;
74245;SDS011;62601;51.044;13.788;2022-10-01T01:06:02;9.82;;;7.88;;
74245;SDS011;62601;51.044;13.788;2022-10-01T01:08:23;9.02;;;7.10;;
74245;SDS011;62601;51.044;13.788;2022-10-01T01:11:02;10.27;;;7.45;;
74245;SDS011;62601;51.044;13.788;2022-10-01T01:13:41;11.70;;;7.40;;
74245;SDS011;62601;51.044;13.788;2022-10-01T01:18:49;7.95;;;7.15;;
74245;SDS011;62601;51.044;13.788;2022-10-01T01:26:28;8.88;;;7.20;;
74245;SDS011;62601;51.044;13.788;2022-10-01T01:28:53;8.20;;;7.20;;
74245;SDS011;62601;51.044;13.788;2022-10-01T01:31:19;8.45;;;7.55;;
74245;SDS011;62601;51.044;13.788;2022-10-01T01:33:44;9.75;;;7.38;;
74245;SDS011;62601;51.044;13.788;2022-10-01T01:36:06;7.63;;;6.93;;
74245;SDS011;62601;51.044;13.788;2022-10-01T01:38:31;9.63;;;7.60;;
74245;SDS011;62601;51.044;13.788;2022-10-01T01:40:55;10.35;;;7.72;;
74245;SDS011;62601;51.044;13.788;2022-10-01T01:43:19;9.10;;;7.82;;
74245;SDS011;62601;51.044;13.788;2022-10-01T01:45:40;10.15;;;6.95;;
74245;SDS011;62601;51.044;13.788;2022-10-01T01:48:02;10.52;;;7.78;;
74245;SDS011;62601;51.044;13.788;2022-10-01T01:50:27;8.23;;;7.43;;
74245;SDS011;62601;51.044;13.788;2022-10-01T01:52:50;10.50;;;7.43;;
74245;SDS011;62601;51.044;13.788;2022-10-01T01:55:15;13.18;;;7.93;;
74245;SDS011;62601;51.044;13.788;2022-10-01T01:57:38;9.27;;;7.25;;
74245;SDS011;62601;51.044;13.788;2022-10-01T02:00:09;9.18;;;7.70;;
74245;SDS011;62601;51.044;13.788;2022-10-01T02:02:31;8.85;;;7.95;;
74245;SDS011;62601;51.044;13.788;2022-10-01T02:05:15;8.25;;;7.45;;
74245;SDS011;62601;51.044;13.788;2022-10-01T02:15:46;10.57;;;8.00;;
74245;SDS011;62601;51.044;13.788;2022-10-01T02:21:08;8.73;;;7.55;;
74245;SDS011;62601;51.044;13.788;2022-10-01T02:23:32;10.10;;;8.20;;
74245;SDS011;62601;51.044;13.788;2022-10-01T02:26:06;9.40;;;7.97;;
74245;SDS011;62601;51.044;13.788;2022-10-01T02:28:28;10.88;;;8.52;;
74245;SDS011;62601;51.044;13.788;2022-10-01T02:30:50;9.65;;;7.97;;
74245;SDS011;62601;51.044;13.788;2022-10-01T02:33:13;9.02;;;7.50;;
74245;SDS011;62601;51.044;13.788;2022-10-01T02:35:35;11.02;;;9.35;;
74245;SDS011;62601;51.044;13.788;2022-10-01T02:38:04;11.15;;;9.20;;
74245;SDS011;62601;51.044;13.788;2022-10-01T02:40:25;11.15;;;7.93;;
74245;SDS011;62601;51.044;13.788;2022-10-01T02:42:48;11.20;;;9.23;;
74245;SDS011;62601;51.044;13.788;2022-10-01T02:45:12;10.18;;;8.65;;
74245;SDS011;62601;51.044;13.788;2022-10-01T02:47:46;9.80;;;8.32;;
74245;SDS011;62601;51.044;13.788;2022-10-01T02:50:14;14.45;;;12.23;;
74245;SDS011;62601;51.044;13.788;2022-10-01T02:52:39;8.73;;;7.80;;
74245;SDS011;62601;51.044;13.788;2022-10-01T02:57:41;9.38;;;8.30;;
74245;SDS011;62601;51.044;13.788;2022-10-01T03:00:04;11.93;;;9.10;;
74245;SDS011;62601;51.044;13.788;2022-10-01T03:02:27;10.13;;;8.63;;
74245;SDS011;62601;51.044;13.788;2022-10-01T03:04:51;10.30;;;8.50;;
74245;SDS011;62601;51.044;13.788;2022-10-01T03:07:16;12.07;;;8.60;;
74245;SDS011;62601;51.044;13.788;2022-10-01T03:09:37;9.50;;;8.50;;
74245;SDS011;62601;51.044;13.788;2022-10-01T03:11:58;8.90;;;8.00;;
74245;SDS011;62601;51.044;13.788;2022-10-01T03:14:20;10.30;;;8.35;;
74245;SDS011;62601;51.044;13.788;2022-10-01T03:16:42;10.50;;;8.80;;
74245;SDS011;62601;51.044;13.788;2022-10-01T03:19:02;9.88;;;8.48;;
74245;SDS011;62601;51.044;13.788;2022-10-01T03:21:23;12.52;;;9.55;;
74245;SDS011;62601;51.044;13.788;2022-10-01T03:23:44;10.25;;;9.18;;
74245;SDS011;62601;51.044;13.788;2022-10-01T03:26:06;9.98;;;8.55;;
74245;SDS011;62601;51.044;13.788;2022-10-01T03:28:28;14.18;;;8.38;;
74245;SDS011;62601;51.044;13.788;2022-10-01T03:30:48;11.80;;;9.15;;
74245;SDS011;62601;51.044;13.788;2022-10-01T03:33:09;11.73;;;9.60;;
74245;SDS011;62601;51.044;13.788;2022-10-01T03:35:31;10.68;;;9.02;;
74245;SDS011;62601;51.044;13.788;2022-10-01T03:37:52;9.52;;;8.57;;
74245;SDS011;62601;51.044;13.788;2022-10-01T03:40:14;10.40;;;8.98;;
74245;SDS011;62601;51.044;13.788;2022-10-01T03:42:34;9.88;;;7.90;;
74245;SDS011;62601;51.044;13.788;2022-10-01T03:44:55;10.23;;;8.30;;
74245;SDS011;62601;51.044;13.788;2022-10-01T03:47:16;16.13;;;10.80;;
74245;SDS011;62601;51.044;13.788;2022-10-01T03:49:38;15.88;;;12.13;;
74245;SDS011;62601;51.044;13.788;2022-10-01T03:51:58;11.52;;;9.70;;
74245;SDS011;62601;51.044;13.788;2022-10-01T03:54:19;12.05;;;10.07;;
74245;SDS011;62601;51.044;13.788;2022-10-01T03:56:41;11.60;;;9.60;;
74245;SDS011;62601;51.044;13.788;2022-10-01T03:59:02;10.60;;;8.98;;
74245;SDS011;62601;51.044;13.788;2022-10-01T04:01:23;11.40;;;9.23;;
74245;SDS011;62601;51.044;13.788;2022-10-01T04:03:45;14.48;;;9.30;;
74245;SDS011;62601;51.044;13.788;2022-10-01T04:06:06;14.60;;;9.30;;
74245;SDS011;62601;51.044;13.788;2022-10-01T04:08:26;12.90;;;9.73;;
74245;SDS011;62601;51.044;13.788;2022-10-01T04:10:48;10.48;;;9.40;;
74245;SDS011;62601;51.044;13.788;2022-10-01T04:13:10;11.43;;;9.15;;
74245;SDS011;62601;51.044;13.788;2022-10-01T04:15:31;10.10;;;8.98;;
74245;SDS011;62601;51.044;13.788;2022-10-01T04:17:53;12.38;;;9.75;;
74245;SDS011;62601;51.044;13.788;2022-10-01T04:20:14;14.25;;;9.05;;
74245;SDS011;62601;51.044;13.788;2022-10-01T04:22:38;12.25;;;8.60;;
74245;SDS011;62601;51.044;13.788;2022-10-01T04:25:00;11.02;;;9.75;;
74245;SDS011;62601;51.044;13.788;2022-10-01T04:27:21;12.20;;;8.93;;
74245;SDS011;62601;51.044;13.788;2022-10-01T04:29:41;12.40;;;9.25;;
74245;SDS011;62601;51.044;13.788;2022-10-01T04:32:02;16.63;;;10.60;;
74245;SDS011;62601;51.044;13.788;2022-10-01T04:34:24;12.38;;;9.60;;
74245;SDS011;62601;51.044;13.788;2022-10-01T04:36:45;13.07;;;9.80;;
74245;SDS011;62601;51.044;13.788;2022-10-01T04:39:06;11.13;;;9.88;;
74245;SDS011;62601;51.044;13.788;2022-10-01T04:41:28;11.30;;;9.63;;
74245;SDS011;62601;51.044;13.788;2022-10-01T04:43:52;10.43;;;9.23;;
74245;SDS011;62601;51.044;13.788;2022-10-01T04:46:14;12.13;;;9.07;;
74245;SDS011;62601;51.044;13.788;2022-10-01T04:48:35;11.85;;;8.85;;
74245;SDS011;62601;51.044;13.788;2022-10-01T04:50:56;11.45;;;9.13;;
74245;SDS011;62601;51.044;13.788;2022-10-01T04:53:18;10.88;;;9.30;;
74245;SDS011;62601;51.044;13.788;2022-10-01T04:55:38;10.50;;;9.30;;
74245;SDS011;62601;51.044;13.788;2022-10-01T04:58:02;10.63;;;9.10;;
74245;SDS011;62601;51.044;13.788;2022-10-01T05:00:24;11.68;;;9.93;;
74245;SDS011;62601;51.044;13.788;2022-10-01T05:02:45;12.75;;;9.93;;
74245;SDS011;62601;51.044;13.788;2022-10-01T05:05:07;12.50;;;8.95;;
74245;SDS011;62601;51.044;13.788;2022-10-01T05:07:29;16.50;;;12.25;;
74245;SDS011;62601;51.044;13.788;2022-10-01T05:09:51;15.20;;;12.23;;
74245;SDS011;62601;51.044;13.788;2022-10-01T05:12:12;13.30;;;10.48;;
74245;SDS011;62601;51.044;13.788;2022-10-01T05:14:32;12.52;;;9.73;;
74245;SDS011;62601;51.044;13.788;2022-10-01T05:16:52;11.13;;;8.65;;
74245;SDS011;62601;51.044;13.788;2022-10-01T05:19:12;13.38;;;9.35;;
74245;SDS011;62601;51.044;13.788;2022-10-01T05:21:33;11.50;;;10.05;;
74245;SDS011;62601;51.044;13.788;2022-10-01T05:23:53;10.40;;;9.30;;
74245;SDS011;62601;51.044;13.788;2022-10-01T05:26:13;11.05;;;9.25;;
74245;SDS011;62601;51.044;13.788;2022-10-01T05:28:34;12.52;;;9.52;;
74245;SDS011;62601;51.044;13.788;2022-10-01T05:30:57;13.63;;;9.80;;
74245;SDS011;62601;51.044;13.788;2022-10-01T05:33:19;12.85;;;10.02;;
74245;SDS011;62601;51.044;13.788;2022-10-01T05:35:40;11.00;;;9.15;;
74245;SDS011;62601;51.044;13.788;2022-10-01T05:38:01;12.13;;;10.23;;
74245;SDS011;62601;51.044;13.788;2022-10-01T05:40:23;11.05;;;9.70;;
74245;SDS011;62601;51.044;13.788;2022-10-01T05:42:44;12.32;;;9.88;;
74245;SDS011;62601;51.044;13.788;2022-10-01T05:45:05;12.55;;;9.52;;
74245;SDS011;62601;51.044;13.788;2022-10-01T05:47:26;11.82;;;10.43;;
74245;SDS011;62601;51.044;13.788;2022-10-01T05:49:47;12.25;;;9.70;;
74245;SDS011;62601;51.044;13.788;2022-10-01T05:52:09;11.63;;;9.80;;
74245;SDS011;62601;51.044;13.788;2022-10-01T05:54:30;10.38;;;9.27;;
74245;SDS011;62601;51.044;13.788;2022-10-01T05:56:52;11.18;;;9.63;;
74245;SDS011;62601;51.044;13.788;2022-10-01T05:59:13;11.45;;;9.60;;
74245;SDS011;62601;51.044;13.788;2022-10-01T06:01:34;12.20;;;9.70;;
74245;SDS011;62601;51.044;13.788;2022-10-01T06:03:56;12.30;;;9.55;;
74245;SDS011;62601;51.044;13.788;2022-10-01T06:06:21;11.95;;;10.63;;
74245;SDS011;62601;51.044;13.788;2022-10-01T06:08:43;15.27;;;10.18;;
74245;SDS011;62601;51.044;13.788;2022-10-01T06:11:04;11.70;;;9.77;;
74245;SDS011;62601;51.044;13.788;2022-10-01T06:13:25;12.32;;;9.50;;
74245;SDS011;62601;51.044;13.788;2022-10-01T06:15:47;11.18;;;9.93;;
74245;SDS011;62601;51.044;13.788;2022-10-01T06:18:12;11.98;;;8.90;;
74245;SDS011;62601;51.044;13.788;2022-10-01T06:20:32;11.88;;;10.60;;
74245;SDS011;62601;51.044;13.788;2022-10-01T06:22:54;17.95;;;13.32;;
74245;SDS011;62601;51.044;13.788;2022-10-01T06:25:16;12.82;;;10.32;;
74245;SDS011;62601;51.044;13.788;2022-10-01T06:27:38;13.20;;;10.30;;
74245;SDS011;62601;51.044;13.788;2022-10-01T06:29:59;14.10;;;10.00;;
74245;SDS011;62601;51.044;13.788;2022-10-01T06:32:19;12.63;;;10.90;;
74245;SDS011;62601;51.044;13.788;2022-10-01T06:34:42;11.23;;;9.80;;
74245;SDS011;62601;51.044;13.788;2022-10-01T06:37:04;10.88;;;9.60;;
74245;SDS011;62601;51.044;13.788;2022-10-01T06:39:25;10.43;;;9.43;;
74245;SDS011;62601;51.044;13.788;2022-10-01T06:41:46;11.23;;;9.75;;
74245;SDS011;62601;51.044;13.788;2022-10-01T06:44:08;11.55;;;10.38;;
74245;SDS011;62601;51.044;13.788;2022-10-01T06:46:30;13.75;;;9.88;;
74245;SDS011;62601;51.044;13.788;2022-10-01T06:48:51;12.75;;;9.40;;
74245;SDS011;62601;51.044;13.788;2022-10-01T06:51:12;11.45;;;9.52;;
74245;SDS011;62601;51.044;13.788;2022-10-01T06:53:34;11.77;;;9.40;;
74245;SDS011;62601;51.044;13.788;2022-10-01T06:55:55;14.93;;;10.50;;
74245;SDS011;62601;51.044;13.788;2022-10-01T06:58:20;12.88;;;10.15;;
74245;SDS011;62601;51.044;13.788;2022-10-01T07:00:42;11.50;;;9.25;;
74245;SDS011;62601;51.044;13.788;2022-10-01T07:03:03;11.82;;;9.50;;
74245;SDS011;62601;51.044;13.788;2022-10-01T07:05:26;10.85;;;9.73;;
74245;SDS011;62601;51.044;13.788;2022-10-01T07:07:47;11.50;;;9.15;;
74245;SDS011;62601;51.044;13.788;2022-10-01T07:10:08;9.85;;;8.80;;
74245;SDS011;62601;51.044;13.788;2022-10-01T07:12:29;12.30;;;10.13;;
74245;SDS011;62601;51.044;13.788;2022-10-01T07:14:51;10.73;;;9.63;;
74245;SDS011;62601;51.044;13.788;2022-10-01T07:17:12;11.45;;;9.80;;
74245;SDS011;62601;51.044;13.788;2022-10-01T07:19:34;11.75;;;9.60;;
74245;SDS011;62601;51.044;13.788;2022-10-01T07:21:55;11.75;;;9.73;;
74245;SDS011;62601;51.044;13.788;2022-10-01T07:24:16;11.10;;;8.85;;
74245;SDS011;62601;51.044;13.788;2022-10-01T07:26:38;10.75;;;8.98;;
74245;SDS011;62601;51.044;13.788;2022-10-01T07:28:59;11.18;;;9.23;;
74245;SDS011;62601;51.044;13.788;2022-10-01T07:31:20;9.15;;;8.25;;
74245;SDS011;62601;51.044;13.788;2022-10-01T07:33:42;11.35;;;8.48;;
74245;SDS011;62601;51.044;13.788;2022-10-01T07:36:03;11.73;;;10.10;;
74245;SDS011;62601;51.044;13.788;2022-10-01T07:38:25;9.45;;;8.45;;
74245;SDS011;62601;51.044;13.788;2022-10-01T07:40:49;17.30;;;13.07;;
74245;SDS011;62601;51.044;13.788;2022-10-01T07:43:11;13.07;;;9.38;;
74245;SDS011;62601;51.044;13.788;2022-10-01T07:45:33;9.75;;;8.32;;
74245;SDS011;62601;51.044;13.788;2022-10-01T07:47:59;12.57;;;8.82;;
74245;SDS011;62601;51.044;13.788;2022-10-01T07:50:19;11.63;;;9.75;;
74245;SDS011;62601;51.044;13.788;2022-10-01T07:52:41;10.02;;;8.73;;
74245;SDS011;62601;51.044;13.788;2022-10-01T07:55:02;8.82;;;7.72;;
74245;SDS011;62601;51.044;13.788;2022-10-01T07:57:23;8.88;;;7.80;;
74245;SDS011;62601;51.044;13.788;2022-10-01T07:59:45;9.68;;;8.43;;
74245;SDS011;62601;51.044;13.788;2022-10-01T08:02:13;9.27;;;8.20;;
74245;SDS011;62601;51.044;13.788;2022-10-01T08:04:35;11.43;;;8.60;;
74245;SDS011;62601;51.044;13.788;2022-10-01T08:06:56;9.27;;;8.38;;
74245;SDS011;62601;51.044;13.788;2022-10-01T08:09:19;9.13;;;7.93;;
74245;SDS011;62601;51.044;13.788;2022-10-01T08:11:40;9.07;;;7.82;;
74245;SDS011;62601;51.044;13.788;2022-10-01T08:14:01;10.13;;;8.10;;
74245;SDS011;62601;51.044;13.788;2022-10-01T08:16:22;9.57;;;7.22;;
74245;SDS011;62601;51.044;13.788;2022-10-01T08:18:43;9.93;;;7.40;;
74245;SDS011;62601;51.044;13.788;2022-10-01T08:21:04;6.97;;;6.25;;
74245;SDS011;62601;51.044;13.788;2022-10-01T08:23:26;9.95;;;7.00;;
74245;SDS011;62601;51.044;13.788;2022-10-01T08:25:48;7.63;;;6.78;;
74245;SDS011;62601;51.044;13.788;2022-10-01T08:28:10;7.70;;;6.35;;
74245;SDS011;62601;51.044;13.788;2022-10-01T08:30:31;6.50;;;5.47;;
74245;SDS011;62601;51.044;13.788;2022-10-01T08:32:57;7.45;;;6.35;;
74245;SDS011;62601;51.044;13.788;2022-10-01T08:35:18;7.88;;;6.47;;
74245;SDS011;62601;51.044;13.788;2022-10-01T08:37:40;6.47;;;5.82;;
74245;SDS011;62601;51.044;13.788;2022-10-01T08:40:02;6.75;;;6.10;;
74245;SDS011;62601;51.044;13.788;2022-10-01T08:45:04;9.45;;;7.80;;
74245;SDS011;62601;51.044;13.788;2022-10-01T08:47:41;8.00;;;6.80;;
74245;SDS011;62601;51.044;13.788;2022-10-01T08:52:47;7.47;;;6.65;;
74245;SDS011;62601;51.044;13.788;2022-10-01T08:55:15;8.13;;;6.93;;
74245;SDS011;62601;51.044;13.788;2022-10-01T08:57:59;7.10;;;6.40;;
74245;SDS011;62601;51.044;13.788;2022-10-01T09:00:21;6.93;;;6.22;;
74245;SDS011;62601;51.044;13.788;2022-10-01T09:02:43;7.35;;;6.57;;
74245;SDS011;62601;51.044;13.788;2022-10-01T09:05:05;6.85;;;6.13;;
74245;SDS011;62601;51.044;13.788;2022-10-01T09:12:47;7.97;;;7.13;;
74245;SDS011;62601;51.044;13.788;2022-10-01T09:15:20;8.48;;;7.15;;
74245;SDS011;62601;51.044;13.788;2022-10-01T09:25:15;7.95;;;7.15;;
74245;SDS011;62601;51.044;13.788;2022-10-01T09:27:39;12.98;;;7.65;;
74245;SDS011;62601;51.044;13.788;2022-10-01T09:30:15;7.38;;;6.57;;
74245;SDS011;62601;51.044;13.788;2022-10-01T09:35:23;8.40;;;7.25;;
74245;SDS011;62601;51.044;13.788;2022-10-01T09:37:56;9.25;;;7.72;;
74245;SDS011;62601;51.044;13.788;2022-10-01T09:43:08;8.88;;;6.97;;
74245;SDS011;62601;51.044;13.788;2022-10-01T09:45:29;7.70;;;6.90;;
74245;SDS011;62601;51.044;13.788;2022-10-01T09:47:52;8.30;;;6.80;;
74245;SDS011;62601;51.044;13.788;2022-10-01T09:50:14;8.88;;;6.97;;
74245;SDS011;62601;51.044;13.788;2022-10-01T09:52:38;7.97;;;6.95;;
74245;SDS011;62601;51.044;13.788;2022-10-01T09:57:39;7.68;;;6.80;;
74245;SDS011;62601;51.044;13.788;2022-10-01T10:02:29;8.02;;;6.55;;
74245;SDS011;62601;51.044;13.788;2022-10-01T10:05:07;6.75;;;6.15;;
74245;SDS011;62601;51.044;13.788;2022-10-01T10:07:38;8.55;;;6.15;;
74245;SDS011;62601;51.044;13.788;2022-10-01T10:10:18;6.75;;;6.15;;
74245;SDS011;62601;51.044;13.788;2022-10-01T10:12:40;7.80;;;6.13;;
74245;SDS011;62601;51.044;13.788;2022-10-01T10:17:41;7.10;;;6.40;;
74245;SDS011;62601;51.044;13.788;2022-10-01T10:20:17;6.53;;;5.93;;
74245;SDS011;62601;51.044;13.788;2022-10-01T10:22:41;6.72;;;6.07;;
74245;SDS011;62601;51.044;13.788;2022-10-01T10:25:09;8.35;;;7.00;;
74245;SDS011;62601;51.044;13.788;2022-10-01T10:27:30;6.30;;;5.55;;
74245;SDS011;62601;51.044;13.788;2022-10-01T10:32:31;4.28;;;3.70;;
74245;SDS011;62601;51.044;13.788;2022-10-01T10:34:54;4.30;;;3.90;;
74245;SDS011;62601;51.044;13.788;2022-10-01T10:37:17;4.97;;;3.83;;
74245;SDS011;62601;51.044;13.788;2022-10-01T10:39:49;6.30;;;5.70;;
74245;SDS011;62601;51.044;13.788;2022-10-01T10:42:14;8.07;;;6.10;;
74245;SDS011;62601;51.044;13.788;2022-10-01T10:44:36;6.82;;;5.80;;
74245;SDS011;62601;51.044;13.788;2022-10-01T10:47:02;3.85;;;3.45;;
74245;SDS011;62601;51.044;13.788;2022-10-01T10:49:37;4.03;;;3.50;;
74245;SDS011;62601;51.044;13.788;2022-10-01T10:52:04;2.47;;;2.28;;
74245;SDS011;62601;51.044;13.788;2022-10-01T10:54:40;3.25;;;2.65;;
74245;SDS011;62601;51.044;13.788;2022-10-01T10:57:02;3.35;;;2.72;;
74245;SDS011;62601;51.044;13.788;2022-10-01T10:59:34;4.22;;;3.20;;
74245;SDS011;62601;51.044;13.788;2022-10-01T11:01:56;3.10;;;2.83;;
74245;SDS011;62601;51.044;13.788;2022-10-01T11:04:42;3.65;;;2.97;;
74245;SDS011;62601;51.044;13.788;2022-10-01T11:07:03;4.00;;;3.65;;
74245;SDS011;62601;51.044;13.788;2022-10-01T11:09:26;3.90;;;3.50;;
74245;SDS011;62601;51.044;13.788;2022-10-01T11:11:57;4.65;;;3.40;;
74245;SDS011;62601;51.044;13.788;2022-10-01T11:17:04;3.80;;;3.50;;
74245;SDS011;62601;51.044;13.788;2022-10-01T11:19:49;5.15;;;3.92;;
74245;SDS011;62601;51.044;13.788;2022-10-01T11:30:25;4.18;;;3.78;;
74245;SDS011;62601;51.044;13.788;2022-10-01T11:40:49;4.45;;;4.00;;
74245;SDS011;62601;51.044;13.788;2022-10-01T11:45:46;5.45;;;3.78;;
74245;SDS011;62601;51.044;13.788;2022-10-01T11:48:10;4.70;;;4.20;;
74245;SDS011;62601;51.044;13.788;2022-10-01T11:50:40;3.42;;;3.10;;
74245;SDS011;62601;51.044;13.788;2022-10-01T11:53:10;4.85;;;3.47;;
74245;SDS011;62601;51.044;13.788;2022-10-01T11:55:46;4.70;;;4.20;;
74245;SDS011;62601;51.044;13.788;2022-10-01T11:58:28;5.97;;;4.30;;
74245;SDS011;62601;51.044;13.788;2022-10-01T12:01:32;5.03;;;4.30;;
74245;SDS011;62601;51.044;13.788;2022-10-01T12:04:10;4.95;;;4.45;;
74245;SDS011;62601;51.044;13.788;2022-10-01T12:09:11;5.28;;;3.78;;
74245;SDS011;62601;51.044;13.788;2022-10-01T12:11:40;4.28;;;3.42;;
74245;SDS011;62601;51.044;13.788;2022-10-01T12:14:07;6.40;;;3.60;;
74245;SDS011;62601;51.044;13.788;2022-10-01T12:19:10;4.22;;;3.83;;
74245;SDS011;62601;51.044;13.788;2022-10-01T12:21:38;3.35;;;3.05;;
74245;SDS011;62601;51.044;13.788;2022-10-01T12:24:19;2.47;;;2.00;;
74245;SDS011;62601;51.044;13.788;2022-10-01T12:48:25;2.97;;;2.53;;
74245;SDS011;62601;51.044;13.788;2022-10-01T12:53:35;5.13;;;2.33;;
74245;SDS011;62601;51.044;13.788;2022-10-01T12:58:58;3.05;;;2.80;;
74245;SDS011;62601;51.044;13.788;2022-10-01T13:09:24;3.85;;;3.33;;
74245;SDS011;62601;51.044;13.788;2022-10-01T13:14:30;4.97;;;4.47;;
74245;SDS011;62601;51.044;13.788;2022-10-01T13:30:19;3.00;;;2.70;;
74245;SDS011;62601;51.044;13.788;2022-10-01T13:32:57;4.15;;;3.30;;
74245;SDS011;62601;51.044;13.788;2022-10-01T13:35:27;5.15;;;3.35;;
74245;SDS011;62601;51.044;13.788;2022-10-01T13:37:57;4.70;;;3.58;;
74245;SDS011;62601;51.044;13.788;2022-10-01T13:40:23;3.25;;;2.95;;
74245;SDS011;62601;51.044;13.788;2022-10-01T13:42:51;3.80;;;3.38;;
74245;SDS011;62601;51.044;13.788;2022-10-01T13:45:25;3.95;;;3.60;;
74245;SDS011;62601;51.044;13.788;2022-10-01T13:47:46;4.32;;;3.92;;
74245;SDS011;62601;51.044;13.788;2022-10-01T13:50:18;3.95;;;3.65;;
74245;SDS011;62601;51.044;13.788;2022-10-01T13:52:43;4.20;;;3.72;;
74245;SDS011;62601;51.044;13.788;2022-10-01T13:55:04;3.83;;;3.42;;
74245;SDS011;62601;51.044;13.788;2022-10-01T13:57:37;3.85;;;3.15;;
74245;SDS011;62601;51.044;13.788;2022-10-01T14:02:36;3.85;;;3.42;;
74245;SDS011;62601;51.044;13.788;2022-10-01T14:05:02;3.10;;;2.80;;
74245;SDS011;62601;51.044;13.788;2022-10-01T14:07:27;3.40;;;3.10;;
74245;SDS011;62601;51.044;13.788;2022-10-01T14:09:50;3.95;;;3.40;;
74245;SDS011;62601;51.044;13.788;2022-10-01T14:12:24;4.32;;;3.92;;
74245;SDS011;62601;51.044;13.788;2022-10-01T14:14:57;3.20;;;2.90;;
74245;SDS011;62601;51.044;13.788;2022-10-01T14:17:20;3.60;;;3.00;;
74245;SDS011;62601;51.044;13.788;2022-10-01T14:19:45;3.45;;;3.05;;
74245;SDS011;62601;51.044;13.788;2022-10-01T14:30:14;7.50;;;4.97;;
74245;SDS011;62601;51.044;13.788;2022-10-01T14:37:21;3.00;;;2.67;;
74245;SDS011;62601;51.044;13.788;2022-10-01T14:39:42;3.67;;;3.03;;
74245;SDS011;62601;51.044;13.788;2022-10-01T14:42:07;2.80;;;2.53;;
74245;SDS011;62601;51.044;13.788;2022-10-01T14:44:36;3.72;;;3.08;;
74245;SDS011;62601;51.044;13.788;2022-10-01T14:46:58;4.57;;;3.67;;
74245;SDS011;62601;51.044;13.788;2022-10-01T14:51:49;4.00;;;3.60;;
74245;SDS011;62601;51.044;13.788;2022-10-01T14:54:14;5.68;;;4.63;;
74245;SDS011;62601;51.044;13.788;2022-10-01T14:56:34;4.93;;;3.88;;
74245;SDS011;62601;51.044;13.788;2022-10-01T14:59:16;3.67;;;3.08;;
74245;SDS011;62601;51.044;13.788;2022-10-01T15:01:36;4.07;;;3.67;;
74245;SDS011;62601;51.044;13.788;2022-10-01T15:03:57;4.40;;;2.70;;
74245;SDS011;62601;51.044;13.788;2022-10-01T15:06:20;3.15;;;2.75;;
74245;SDS011;62601;51.044;13.788;2022-10-01T15:08:42;2.50;;;2.13;;
74245;SDS011;62601;51.044;13.788;2022-10-01T15:11:03;3.05;;;1.90;;
74245;SDS011;62601;51.044;13.788;2022-10-01T15:13:28;2.30;;;1.02;;
74245;SDS011;62601;51.044;13.788;2022-10-01T15:15:57;5.13;;;2.13;;
74245;SDS011;62601;51.044;13.788;2022-10-01T15:18:19;1.60;;;1.40;;
74245;SDS011;62601;51.044;13.788;2022-10-01T15:23:35;12.80;;;10.27;;
74245;SDS011;62601;51.044;13.788;2022-10-01T15:25:59;2.30;;;1.98;;
74245;SDS011;62601;51.044;13.788;2022-10-01T15:28:27;1.03;;;0.90;;
74245;SDS011;62601;51.044;13.788;2022-10-01T15:30:49;1.05;;;0.90;;
74245;SDS011;62601;51.044;13.788;2022-10-01T15:33:18;1.67;;;1.08;;
74245;SDS011;62601;51.044;13.788;2022-10-01T15:35:41;1.10;;;0.77;;
74245;SDS011;62601;51.044;13.788;2022-10-01T15:38:02;1.00;;;0.90;;
74245;SDS011;62601;51.044;13.788;2022-10-01T15:40:32;1.05;;;0.95;;
74245;SDS011;62601;51.044;13.788;2022-10-01T15:43:12;0.80;;;0.80;;
74245;SDS011;62601;51.044;13.788;2022-10-01T15:45:40;0.88;;;0.60;;
74245;SDS011;62601;51.044;13.788;2022-10-01T15:48:01;0.80;;;0.70;;
74245;SDS011;62601;51.044;13.788;2022-10-01T15:50:26;0.80;;;0.80;;
74245;SDS011;62601;51.044;13.788;2022-10-01T15:52:59;1.48;;;1.10;;
74245;SDS011;62601;51.044;13.788;2022-10-01T16:03:24;0.97;;;0.83;;
74245;SDS011;62601;51.044;13.788;2022-10-01T16:05:46;1.37;;;1.10;;
74245;SDS011;62601;51.044;13.788;2022-10-01T16:08:13;1.10;;;0.90;;
74245;SDS011;62601;51.044;13.788;2022-10-01T16:10:37;1.83;;;1.73;;
74245;SDS011;62601;51.044;13.788;2022-10-01T16:12:58;0.93;;;0.73;;
74245;SDS011;62601;51.044;13.788;2022-10-01T16:15:22;1.40;;;0.98;;
74245;SDS011;62601;51.044;13.788;2022-10-01T16:17:51;1.20;;;1.08;;
74245;SDS011;62601;51.044;13.788;2022-10-01T16:22:35;6.53;;;5.40;;
74245;SDS011;62601;51.044;13.788;2022-10-01T16:25:00;1.63;;;1.40;;
74245;SDS011;62601;51.044;13.788;2022-10-01T16:27:25;0.80;;;0.80;;
74245;SDS011;62601;51.044;13.788;2022-10-01T16:30:47;1.10;;;1.00;;
74245;SDS011;62601;51.044;13.788;2022-10-01T16:32:43;1.13;;;0.90;;
74245;SDS011;62601;51.044;13.788;2022-10-01T16:37:37;1.02;;;0.93;;
74245;SDS011;62601;51.044;13.788;2022-10-01T16:39:58;1.20;;;0.98;;
74245;SDS011;62601;51.044;13.788;2022-10-01T16:42:19;1.20;;;0.93;;
74245;SDS011;62601;51.044;13.788;2022-10-01T16:44:41;1.17;;;1.08;;
74245;SDS011;62601;51.044;13.788;2022-10-01T16:47:01;1.50;;;1.23;;
74245;SDS011;62601;51.044;13.788;2022-10-01T16:49:23;3.45;;;1.23;;
74245;SDS011;62601;51.044;13.788;2022-10-01T16:51:49;1.25;;;1.10;;
74245;SDS011;62601;51.044;13.788;2022-10-01T16:54:14;2.97;;;1.47;;
74245;SDS011;62601;51.044;13.788;2022-10-01T16:56:36;1.45;;;1.10;;
74245;SDS011;62601;51.044;13.788;2022-10-01T16:58:56;1.90;;;1.00;;
74245;SDS011;62601;51.044;13.788;2022-10-01T17:01:17;1.30;;;1.20;;